sensor_id;sensor_type;location;lat;lon;timestamp;P1;durP1;ratioP1;P2;durP2;ratioP2
54945;SDS011;40846;44.788;20.486;2023-02-15T00:01:25;69.95;;;34.20;;
54945;SDS011;40846;44.788;20.486;2023-02-15T00:03:51;95.40;;;47.63;;
54945;SDS011;40846;44.788;20.486;2023-02-15T00:06:18;97.47;;;43.10;;
54945;SDS011;40846;44.788;20.486;2023-02-15T00:08:44;81.10;;;41.13;;
54945;SDS011;40846;44.788;20.486;2023-02-15T00:11:11;82.85;;;38.75;;
54945;SDS011;40846;44.788;20.486;2023-02-15T00:13:37;81.68;;;39.63;;
54945;SDS011;40846;44.788;20.486;2023-02-15T00:16:10;76.20;;;40.00;;
54945;SDS011;40846;44.788;20.486;2023-02-15T00:18:37;80.20;;;40.63;;
54945;SDS011;40846;44.788;20.486;2023-02-15T00:21:04;80.55;;;40.35;;
54945;SDS011;40846;44.788;20.486;2023-02-15T00:23:31;65.13;;;32.80;;
54945;SDS011;40846;44.788;20.486;2023-02-15T00:26:04;62.05;;;31.17;;
54945;SDS011;40846;44.788;20.486;2023-02-15T00:28:30;65.80;;;31.60;;
54945;SDS011;40846;44.788;20.486;2023-02-15T00:31:02;66.13;;;33.15;;
54945;SDS011;40846;44.788;20.486;2023-02-15T00:33:28;64.93;;;32.80;;
54945;SDS011;40846;44.788;20.486;2023-02-15T00:35:58;68.80;;;33.28;;
54945;SDS011;40846;44.788;20.486;2023-02-15T00:38:24;71.53;;;36.45;;
54945;SDS011;40846;44.788;20.486;2023-02-15T00:40:57;77.75;;;37.10;;
54945;SDS011;40846;44.788;20.486;2023-02-15T00:43:23;76.32;;;37.40;;
54945;SDS011;40846;44.788;20.486;2023-02-15T00:45:49;77.63;;;38.08;;
54945;SDS011;40846;44.788;20.486;2023-02-15T00:48:15;79.63;;;38.05;;
54945;SDS011;40846;44.788;20.486;2023-02-15T00:50:44;71.65;;;37.22;;
54945;SDS011;40846;44.788;20.486;2023-02-15T00:53:10;75.03;;;36.17;;
54945;SDS011;40846;44.788;20.486;2023-02-15T00:55:36;76.75;;;34.80;;
54945;SDS011;40846;44.788;20.486;2023-02-15T00:58:04;70.63;;;35.38;;
54945;SDS011;40846;44.788;20.486;2023-02-15T01:00:30;74.18;;;35.03;;
54945;SDS011;40846;44.788;20.486;2023-02-15T01:02:56;69.55;;;34.25;;
54945;SDS011;40846;44.788;20.486;2023-02-15T01:05:22;68.30;;;34.00;;
54945;SDS011;40846;44.788;20.486;2023-02-15T01:07:49;76.45;;;37.22;;
54945;SDS011;40846;44.788;20.486;2023-02-15T01:10:15;79.85;;;37.58;;
54945;SDS011;40846;44.788;20.486;2023-02-15T01:12:41;75.40;;;34.03;;
54945;SDS011;40846;44.788;20.486;2023-02-15T01:15:07;73.28;;;34.85;;
54945;SDS011;40846;44.788;20.486;2023-02-15T01:17:33;74.45;;;34.92;;
54945;SDS011;40846;44.788;20.486;2023-02-15T01:20:00;76.03;;;36.55;;
54945;SDS011;40846;44.788;20.486;2023-02-15T01:22:26;75.80;;;35.72;;
54945;SDS011;40846;44.788;20.486;2023-02-15T01:24:52;77.28;;;35.90;;
54945;SDS011;40846;44.788;20.486;2023-02-15T01:27:18;72.80;;;34.80;;
54945;SDS011;40846;44.788;20.486;2023-02-15T01:29:44;74.07;;;34.20;;
54945;SDS011;40846;44.788;20.486;2023-02-15T01:32:10;68.00;;;31.42;;
54945;SDS011;40846;44.788;20.486;2023-02-15T01:34:36;71.35;;;31.92;;
54945;SDS011;40846;44.788;20.486;2023-02-15T01:37:02;67.15;;;32.38;;
54945;SDS011;40846;44.788;20.486;2023-02-15T01:39:28;62.60;;;29.85;;
54945;SDS011;40846;44.788;20.486;2023-02-15T01:41:54;72.70;;;33.63;;
54945;SDS011;40846;44.788;20.486;2023-02-15T01:47:07;69.35;;;33.33;;
54945;SDS011;40846;44.788;20.486;2023-02-15T01:49:34;65.05;;;32.67;;
54945;SDS011;40846;44.788;20.486;2023-02-15T01:52:00;61.10;;;30.80;;
54945;SDS011;40846;44.788;20.486;2023-02-15T01:54:31;64.95;;;32.33;;
54945;SDS011;40846;44.788;20.486;2023-02-15T01:57:00;61.42;;;31.08;;
54945;SDS011;40846;44.788;20.486;2023-02-15T01:59:28;62.38;;;30.88;;
54945;SDS011;40846;44.788;20.486;2023-02-15T02:01:54;64.25;;;31.83;;
54945;SDS011;40846;44.788;20.486;2023-02-15T02:04:31;66.60;;;31.75;;
54945;SDS011;40846;44.788;20.486;2023-02-15T02:06:59;57.53;;;29.80;;
54945;SDS011;40846;44.788;20.486;2023-02-15T02:09:25;70.80;;;33.22;;
54945;SDS011;40846;44.788;20.486;2023-02-15T02:11:52;244.40;;;71.13;;
54945;SDS011;40846;44.788;20.486;2023-02-15T02:14:19;54.83;;;29.30;;
54945;SDS011;40846;44.788;20.486;2023-02-15T02:27:23;51.17;;;25.48;;
54945;SDS011;40846;44.788;20.486;2023-02-15T02:42:44;126.82;;;40.08;;
54945;SDS011;40846;44.788;20.486;2023-02-15T02:45:25;49.70;;;24.97;;
54945;SDS011;40846;44.788;20.486;2023-02-15T02:48:05;61.17;;;26.48;;
54945;SDS011;40846;44.788;20.486;2023-02-15T02:50:33;105.57;;;34.85;;
54945;SDS011;40846;44.788;20.486;2023-02-15T02:52:59;117.40;;;39.13;;
54945;SDS011;40846;44.788;20.486;2023-02-15T02:55:28;95.68;;;33.38;;
54945;SDS011;40846;44.788;20.486;2023-02-15T02:58:00;57.67;;;27.17;;
54945;SDS011;40846;44.788;20.486;2023-02-15T03:00:29;58.72;;;26.30;;
54945;SDS011;40846;44.788;20.486;2023-02-15T03:03:00;84.78;;;32.40;;
54945;SDS011;40846;44.788;20.486;2023-02-15T03:05:30;49.97;;;23.50;;
54945;SDS011;40846;44.788;20.486;2023-02-15T03:07:56;52.15;;;24.55;;
54945;SDS011;40846;44.788;20.486;2023-02-15T03:10:22;84.72;;;32.38;;
54945;SDS011;40846;44.788;20.486;2023-02-15T03:12:49;76.78;;;30.35;;
54945;SDS011;40846;44.788;20.486;2023-02-15T03:15:18;55.22;;;25.27;;
54945;SDS011;40846;44.788;20.486;2023-02-15T03:17:46;100.68;;;36.08;;
54945;SDS011;40846;44.788;20.486;2023-02-15T03:22:45;46.38;;;23.05;;
54945;SDS011;40846;44.788;20.486;2023-02-15T03:25:16;80.18;;;33.08;;
54945;SDS011;40846;44.788;20.486;2023-02-15T03:30:10;57.60;;;26.67;;
54945;SDS011;40846;44.788;20.486;2023-02-15T03:32:38;107.63;;;38.53;;
54945;SDS011;40846;44.788;20.486;2023-02-15T03:35:05;125.07;;;43.22;;
54945;SDS011;40846;44.788;20.486;2023-02-15T03:37:45;90.25;;;36.58;;
54945;SDS011;40846;44.788;20.486;2023-02-15T03:40:23;105.13;;;39.00;;
54945;SDS011;40846;44.788;20.486;2023-02-15T03:45:56;48.28;;;23.70;;
54945;SDS011;40846;44.788;20.486;2023-02-15T03:48:24;50.03;;;23.63;;
54945;SDS011;40846;44.788;20.486;2023-02-15T03:50:53;40.65;;;22.83;;
54945;SDS011;40846;44.788;20.486;2023-02-15T03:53:39;46.22;;;24.55;;
54945;SDS011;40846;44.788;20.486;2023-02-15T03:56:07;47.92;;;24.88;;
54945;SDS011;40846;44.788;20.486;2023-02-15T03:58:33;49.25;;;24.95;;
54945;SDS011;40846;44.788;20.486;2023-02-15T04:01:21;53.05;;;27.33;;
54945;SDS011;40846;44.788;20.486;2023-02-15T04:04:32;49.65;;;24.35;;
54945;SDS011;40846;44.788;20.486;2023-02-15T04:06:58;53.20;;;25.38;;
54945;SDS011;40846;44.788;20.486;2023-02-15T04:09:25;55.33;;;26.30;;
54945;SDS011;40846;44.788;20.486;2023-02-15T04:12:09;47.40;;;25.52;;
54945;SDS011;40846;44.788;20.486;2023-02-15T04:14:35;53.17;;;25.75;;
54945;SDS011;40846;44.788;20.486;2023-02-15T04:17:19;90.22;;;43.83;;
54945;SDS011;40846;44.788;20.486;2023-02-15T04:19:45;72.78;;;36.20;;
54945;SDS011;40846;44.788;20.486;2023-02-15T04:22:30;93.20;;;42.40;;
54945;SDS011;40846;44.788;20.486;2023-02-15T04:25:14;68.80;;;33.40;;
54945;SDS011;40846;44.788;20.486;2023-02-15T04:27:42;80.60;;;35.92;;
54945;SDS011;40846;44.788;20.486;2023-02-15T04:30:09;107.35;;;51.75;;
54945;SDS011;40846;44.788;20.486;2023-02-15T04:32:35;67.50;;;34.92;;
54945;SDS011;40846;44.788;20.486;2023-02-15T04:35:01;61.63;;;33.88;;
54945;SDS011;40846;44.788;20.486;2023-02-15T04:37:28;51.90;;;25.98;;
54945;SDS011;40846;44.788;20.486;2023-02-15T04:39:54;47.70;;;26.40;;
54945;SDS011;40846;44.788;20.486;2023-02-15T04:42:20;61.92;;;34.25;;
54945;SDS011;40846;44.788;20.486;2023-02-15T04:44:46;55.58;;;29.15;;
54945;SDS011;40846;44.788;20.486;2023-02-15T04:47:12;58.60;;;29.65;;
54945;SDS011;40846;44.788;20.486;2023-02-15T04:49:38;58.25;;;31.75;;
54945;SDS011;40846;44.788;20.486;2023-02-15T04:52:04;59.63;;;30.00;;
54945;SDS011;40846;44.788;20.486;2023-02-15T04:54:30;52.47;;;29.13;;
54945;SDS011;40846;44.788;20.486;2023-02-15T04:56:56;57.95;;;30.30;;
54945;SDS011;40846;44.788;20.486;2023-02-15T04:59:22;53.85;;;29.02;;
54945;SDS011;40846;44.788;20.486;2023-02-15T05:01:48;55.50;;;31.23;;
54945;SDS011;40846;44.788;20.486;2023-02-15T05:04:14;60.70;;;33.15;;
54945;SDS011;40846;44.788;20.486;2023-02-15T05:06:40;57.70;;;30.55;;
54945;SDS011;40846;44.788;20.486;2023-02-15T05:09:06;57.30;;;28.95;;
54945;SDS011;40846;44.788;20.486;2023-02-15T05:11:32;51.88;;;28.48;;
54945;SDS011;40846;44.788;20.486;2023-02-15T05:13:58;53.72;;;27.52;;
54945;SDS011;40846;44.788;20.486;2023-02-15T05:16:24;62.40;;;29.52;;
54945;SDS011;40846;44.788;20.486;2023-02-15T05:18:52;52.35;;;27.13;;
54945;SDS011;40846;44.788;20.486;2023-02-15T05:21:18;59.83;;;28.67;;
54945;SDS011;40846;44.788;20.486;2023-02-15T05:23:44;56.65;;;28.13;;
54945;SDS011;40846;44.788;20.486;2023-02-15T05:26:11;56.50;;;27.73;;
54945;SDS011;40846;44.788;20.486;2023-02-15T05:28:56;52.65;;;26.92;;
54945;SDS011;40846;44.788;20.486;2023-02-15T05:31:22;55.47;;;28.77;;
54945;SDS011;40846;44.788;20.486;2023-02-15T05:33:48;51.28;;;28.27;;
54945;SDS011;40846;44.788;20.486;2023-02-15T05:36:14;51.25;;;26.50;;
54945;SDS011;40846;44.788;20.486;2023-02-15T05:38:40;49.80;;;26.20;;
54945;SDS011;40846;44.788;20.486;2023-02-15T05:41:06;54.10;;;25.88;;
54945;SDS011;40846;44.788;20.486;2023-02-15T05:43:33;52.58;;;27.08;;
54945;SDS011;40846;44.788;20.486;2023-02-15T05:45:59;53.58;;;27.70;;
54945;SDS011;40846;44.788;20.486;2023-02-15T05:48:26;68.93;;;33.70;;
54945;SDS011;40846;44.788;20.486;2023-02-15T05:50:59;62.33;;;30.50;;
54945;SDS011;40846;44.788;20.486;2023-02-15T05:53:26;64.53;;;30.83;;
54945;SDS011;40846;44.788;20.486;2023-02-15T05:55:52;77.40;;;35.42;;
54945;SDS011;40846;44.788;20.486;2023-02-15T05:58:23;58.65;;;31.25;;
54945;SDS011;40846;44.788;20.486;2023-02-15T06:00:50;65.03;;;32.90;;
54945;SDS011;40846;44.788;20.486;2023-02-15T06:03:16;59.30;;;31.73;;
54945;SDS011;40846;44.788;20.486;2023-02-15T06:05:42;68.47;;;32.53;;
54945;SDS011;40846;44.788;20.486;2023-02-15T06:08:08;64.13;;;31.13;;
54945;SDS011;40846;44.788;20.486;2023-02-15T06:10:34;66.57;;;33.00;;
54945;SDS011;40846;44.788;20.486;2023-02-15T06:13:00;65.53;;;33.20;;
54945;SDS011;40846;44.788;20.486;2023-02-15T06:15:26;64.70;;;32.20;;
54945;SDS011;40846;44.788;20.486;2023-02-15T06:17:52;62.92;;;31.23;;
54945;SDS011;40846;44.788;20.486;2023-02-15T06:20:18;63.22;;;32.53;;
54945;SDS011;40846;44.788;20.486;2023-02-15T06:22:44;62.40;;;31.20;;
54945;SDS011;40846;44.788;20.486;2023-02-15T06:25:10;63.10;;;32.53;;
54945;SDS011;40846;44.788;20.486;2023-02-15T06:27:37;66.20;;;33.10;;
54945;SDS011;40846;44.788;20.486;2023-02-15T06:30:04;66.78;;;32.95;;
54945;SDS011;40846;44.788;20.486;2023-02-15T06:32:30;69.90;;;33.15;;
54945;SDS011;40846;44.788;20.486;2023-02-15T06:34:56;67.47;;;32.45;;
54945;SDS011;40846;44.788;20.486;2023-02-15T06:37:23;67.57;;;35.65;;
54945;SDS011;40846;44.788;20.486;2023-02-15T06:39:49;71.53;;;33.17;;
54945;SDS011;40846;44.788;20.486;2023-02-15T06:42:15;74.28;;;34.25;;
54945;SDS011;40846;44.788;20.486;2023-02-15T06:44:42;65.97;;;35.28;;
54945;SDS011;40846;44.788;20.486;2023-02-15T06:47:09;63.42;;;34.22;;
54945;SDS011;40846;44.788;20.486;2023-02-15T06:49:36;94.00;;;35.22;;
54945;SDS011;40846;44.788;20.486;2023-02-15T06:52:02;70.38;;;33.45;;
54945;SDS011;40846;44.788;20.486;2023-02-15T06:54:28;60.72;;;32.28;;
54945;SDS011;40846;44.788;20.486;2023-02-15T06:56:54;69.97;;;35.08;;
54945;SDS011;40846;44.788;20.486;2023-02-15T06:59:20;186.35;;;89.20;;
54945;SDS011;40846;44.788;20.486;2023-02-15T07:01:46;103.97;;;48.97;;
54945;SDS011;40846;44.788;20.486;2023-02-15T07:04:14;83.63;;;39.42;;
54945;SDS011;40846;44.788;20.486;2023-02-15T07:06:40;61.47;;;32.33;;
54945;SDS011;40846;44.788;20.486;2023-02-15T07:09:06;68.72;;;33.13;;
54945;SDS011;40846;44.788;20.486;2023-02-15T07:11:32;67.72;;;31.95;;
54945;SDS011;40846;44.788;20.486;2023-02-15T07:14:17;75.63;;;34.95;;
54945;SDS011;40846;44.788;20.486;2023-02-15T07:16:43;73.97;;;34.47;;
54945;SDS011;40846;44.788;20.486;2023-02-15T07:19:09;106.50;;;48.08;;
54945;SDS011;40846;44.788;20.486;2023-02-15T07:21:35;253.93;;;86.38;;
54945;SDS011;40846;44.788;20.486;2023-02-15T07:24:02;74.55;;;35.17;;
54945;SDS011;40846;44.788;20.486;2023-02-15T07:26:28;77.32;;;33.10;;
54945;SDS011;40846;44.788;20.486;2023-02-15T07:28:54;66.85;;;34.65;;
54945;SDS011;40846;44.788;20.486;2023-02-15T07:31:20;58.92;;;31.10;;
54945;SDS011;40846;44.788;20.486;2023-02-15T07:33:46;55.10;;;29.25;;
54945;SDS011;40846;44.788;20.486;2023-02-15T07:36:12;57.88;;;29.65;;
54945;SDS011;40846;44.788;20.486;2023-02-15T07:38:40;60.53;;;30.85;;
54945;SDS011;40846;44.788;20.486;2023-02-15T07:41:08;58.70;;;30.35;;
54945;SDS011;40846;44.788;20.486;2023-02-15T07:43:35;119.38;;;52.58;;
54945;SDS011;40846;44.788;20.486;2023-02-15T07:46:02;80.93;;;42.60;;
54945;SDS011;40846;44.788;20.486;2023-02-15T07:48:29;66.90;;;33.88;;
54945;SDS011;40846;44.788;20.486;2023-02-15T07:50:58;44.63;;;25.33;;
54945;SDS011;40846;44.788;20.486;2023-02-15T07:53:25;49.45;;;26.10;;
54945;SDS011;40846;44.788;20.486;2023-02-15T07:55:52;47.38;;;25.23;;
54945;SDS011;40846;44.788;20.486;2023-02-15T07:58:20;43.55;;;25.63;;
54945;SDS011;40846;44.788;20.486;2023-02-15T08:00:46;58.20;;;28.30;;
54945;SDS011;40846;44.788;20.486;2023-02-15T08:03:24;49.08;;;27.35;;
54945;SDS011;40846;44.788;20.486;2023-02-15T08:05:57;42.75;;;23.83;;
54945;SDS011;40846;44.788;20.486;2023-02-15T08:08:24;42.42;;;23.63;;
54945;SDS011;40846;44.788;20.486;2023-02-15T08:11:00;49.88;;;24.77;;
54945;SDS011;40846;44.788;20.486;2023-02-15T08:13:46;43.35;;;24.42;;
54945;SDS011;40846;44.788;20.486;2023-02-15T08:16:20;43.03;;;24.80;;
54945;SDS011;40846;44.788;20.486;2023-02-15T08:18:46;50.90;;;26.67;;
54945;SDS011;40846;44.788;20.486;2023-02-15T08:21:12;50.80;;;27.90;;
54945;SDS011;40846;44.788;20.486;2023-02-15T08:23:38;48.78;;;25.25;;
54945;SDS011;40846;44.788;20.486;2023-02-15T08:26:04;45.13;;;25.10;;
54945;SDS011;40846;44.788;20.486;2023-02-15T08:28:31;49.13;;;26.33;;
54945;SDS011;40846;44.788;20.486;2023-02-15T08:31:04;46.15;;;24.33;;
54945;SDS011;40846;44.788;20.486;2023-02-15T08:33:30;48.13;;;22.70;;
54945;SDS011;40846;44.788;20.486;2023-02-15T08:35:56;36.75;;;22.88;;
54945;SDS011;40846;44.788;20.486;2023-02-15T08:38:23;40.97;;;22.67;;
54945;SDS011;40846;44.788;20.486;2023-02-15T08:40:49;51.90;;;24.73;;
54945;SDS011;40846;44.788;20.486;2023-02-15T08:43:15;43.13;;;24.98;;
54945;SDS011;40846;44.788;20.486;2023-02-15T08:45:41;40.15;;;21.80;;
54945;SDS011;40846;44.788;20.486;2023-02-15T08:48:07;32.08;;;19.00;;
54945;SDS011;40846;44.788;20.486;2023-02-15T08:50:33;31.08;;;19.85;;
54945;SDS011;40846;44.788;20.486;2023-02-15T08:53:00;37.13;;;20.85;;
54945;SDS011;40846;44.788;20.486;2023-02-15T08:55:27;34.95;;;20.13;;
54945;SDS011;40846;44.788;20.486;2023-02-15T08:57:53;30.13;;;19.67;;
54945;SDS011;40846;44.788;20.486;2023-02-15T09:00:21;37.17;;;19.67;;
54945;SDS011;40846;44.788;20.486;2023-02-15T09:02:47;27.15;;;18.33;;
54945;SDS011;40846;44.788;20.486;2023-02-15T09:05:13;28.40;;;19.58;;
54945;SDS011;40846;44.788;20.486;2023-02-15T09:07:40;30.83;;;19.55;;
54945;SDS011;40846;44.788;20.486;2023-02-15T09:10:06;31.55;;;19.83;;
54945;SDS011;40846;44.788;20.486;2023-02-15T09:12:32;30.80;;;18.77;;
54945;SDS011;40846;44.788;20.486;2023-02-15T09:14:58;31.30;;;18.65;;
54945;SDS011;40846;44.788;20.486;2023-02-15T09:17:24;33.80;;;19.10;;
54945;SDS011;40846;44.788;20.486;2023-02-15T09:19:50;33.13;;;21.27;;
54945;SDS011;40846;44.788;20.486;2023-02-15T09:22:16;30.15;;;20.67;;
54945;SDS011;40846;44.788;20.486;2023-02-15T09:24:42;33.63;;;19.77;;
54945;SDS011;40846;44.788;20.486;2023-02-15T09:27:09;33.22;;;20.95;;
54945;SDS011;40846;44.788;20.486;2023-02-15T09:29:41;32.22;;;20.40;;
54945;SDS011;40846;44.788;20.486;2023-02-15T09:32:06;36.15;;;21.05;;
54945;SDS011;40846;44.788;20.486;2023-02-15T09:34:32;31.80;;;20.25;;
54945;SDS011;40846;44.788;20.486;2023-02-15T09:36:58;34.15;;;21.40;;
54945;SDS011;40846;44.788;20.486;2023-02-15T09:39:26;31.67;;;21.27;;
54945;SDS011;40846;44.788;20.486;2023-02-15T09:52:20;37.67;;;22.33;;
54945;SDS011;40846;44.788;20.486;2023-02-15T10:05:24;30.30;;;18.55;;
54945;SDS011;40846;44.788;20.486;2023-02-15T10:08:05;40.55;;;18.35;;
54945;SDS011;40846;44.788;20.486;2023-02-15T10:10:39;26.02;;;18.95;;
54945;SDS011;40846;44.788;20.486;2023-02-15T10:25:08;22.25;;;16.20;;
54945;SDS011;40846;44.788;20.486;2023-02-15T10:28:18;21.25;;;15.63;;
54945;SDS011;40846;44.788;20.486;2023-02-15T10:30:48;20.70;;;15.48;;
54945;SDS011;40846;44.788;20.486;2023-02-15T10:43:47;25.38;;;18.08;;
54945;SDS011;40846;44.788;20.486;2023-02-15T10:56:38;37.25;;;21.63;;
54945;SDS011;40846;44.788;20.486;2023-02-15T10:59:30;33.55;;;18.70;;
54945;SDS011;40846;44.788;20.486;2023-02-15T11:02:11;41.22;;;17.85;;
54945;SDS011;40846;44.788;20.486;2023-02-15T11:04:47;49.92;;;26.90;;
54945;SDS011;40846;44.788;20.486;2023-02-15T11:07:16;58.95;;;30.70;;
54945;SDS011;40846;44.788;20.486;2023-02-15T11:09:46;30.48;;;20.30;;
54945;SDS011;40846;44.788;20.486;2023-02-15T11:12:16;29.73;;;17.70;;
54945;SDS011;40846;44.788;20.486;2023-02-15T11:14:49;34.80;;;18.83;;
54945;SDS011;40846;44.788;20.486;2023-02-15T11:17:24;33.67;;;21.27;;
54945;SDS011;40846;44.788;20.486;2023-02-15T11:22:20;29.90;;;18.35;;
54945;SDS011;40846;44.788;20.486;2023-02-15T11:24:47;30.35;;;18.15;;
54945;SDS011;40846;44.788;20.486;2023-02-15T11:27:19;28.35;;;16.75;;
54945;SDS011;40846;44.788;20.486;2023-02-15T11:32:30;26.45;;;15.73;;
54945;SDS011;40846;44.788;20.486;2023-02-15T11:34:59;29.38;;;17.23;;
54945;SDS011;40846;44.788;20.486;2023-02-15T11:37:37;32.70;;;17.48;;
54945;SDS011;40846;44.788;20.486;2023-02-15T11:42:43;24.65;;;15.77;;
54945;SDS011;40846;44.788;20.486;2023-02-15T11:45:22;31.98;;;17.00;;
54945;SDS011;40846;44.788;20.486;2023-02-15T11:47:48;27.73;;;17.05;;
54945;SDS011;40846;44.788;20.486;2023-02-15T11:50:15;32.65;;;17.08;;
54945;SDS011;40846;44.788;20.486;2023-02-15T11:52:43;23.35;;;14.65;;
54945;SDS011;40846;44.788;20.486;2023-02-15T11:55:14;31.60;;;17.27;;
54945;SDS011;40846;44.788;20.486;2023-02-15T11:57:43;27.88;;;16.05;;
54945;SDS011;40846;44.788;20.486;2023-02-15T12:02:40;29.48;;;17.13;;
54945;SDS011;40846;44.788;20.486;2023-02-15T12:05:14;33.20;;;17.08;;
54945;SDS011;40846;44.788;20.486;2023-02-15T12:12:41;27.90;;;16.70;;
54945;SDS011;40846;44.788;20.486;2023-02-15T12:15:08;28.55;;;16.25;;
54945;SDS011;40846;44.788;20.486;2023-02-15T12:17:41;32.72;;;18.83;;
54945;SDS011;40846;44.788;20.486;2023-02-15T12:22:49;30.80;;;16.83;;
54945;SDS011;40846;44.788;20.486;2023-02-15T12:27:42;28.75;;;16.58;;
54945;SDS011;40846;44.788;20.486;2023-02-15T12:32:49;31.38;;;19.88;;
54945;SDS011;40846;44.788;20.486;2023-02-15T12:35:29;31.15;;;16.85;;
54945;SDS011;40846;44.788;20.486;2023-02-15T12:37:57;44.83;;;23.40;;
54945;SDS011;40846;44.788;20.486;2023-02-15T12:40:27;25.77;;;15.90;;
54945;SDS011;40846;44.788;20.486;2023-02-15T12:42:53;30.65;;;17.20;;
54945;SDS011;40846;44.788;20.486;2023-02-15T12:50:35;27.00;;;15.80;;
54945;SDS011;40846;44.788;20.486;2023-02-15T12:53:12;27.70;;;15.95;;
54945;SDS011;40846;44.788;20.486;2023-02-15T12:55:42;28.55;;;17.10;;
54945;SDS011;40846;44.788;20.486;2023-02-15T13:00:41;29.23;;;18.02;;
54945;SDS011;40846;44.788;20.486;2023-02-15T13:03:14;30.92;;;16.88;;
54945;SDS011;40846;44.788;20.486;2023-02-15T13:05:42;29.67;;;16.55;;
54945;SDS011;40846;44.788;20.486;2023-02-15T13:13:21;29.40;;;16.90;;
54945;SDS011;40846;44.788;20.486;2023-02-15T13:15:49;27.98;;;16.90;;
54945;SDS011;40846;44.788;20.486;2023-02-15T13:18:17;27.73;;;18.08;;
54945;SDS011;40846;44.788;20.486;2023-02-15T13:20:45;30.27;;;17.02;;
54945;SDS011;40846;44.788;20.486;2023-02-15T13:23:18;54.65;;;29.13;;
54945;SDS011;40846;44.788;20.486;2023-02-15T13:25:52;46.55;;;25.48;;
54945;SDS011;40846;44.788;20.486;2023-02-15T13:28:20;30.10;;;17.48;;
54945;SDS011;40846;44.788;20.486;2023-02-15T13:30:47;33.75;;;17.83;;
54945;SDS011;40846;44.788;20.486;2023-02-15T13:35:46;40.13;;;20.50;;
54945;SDS011;40846;44.788;20.486;2023-02-15T13:41:12;35.15;;;19.60;;
54945;SDS011;40846;44.788;20.486;2023-02-15T13:51:31;33.15;;;17.65;;
54945;SDS011;40846;44.788;20.486;2023-02-15T13:54:04;31.42;;;18.60;;
54945;SDS011;40846;44.788;20.486;2023-02-15T13:56:43;41.88;;;20.48;;
54945;SDS011;40846;44.788;20.486;2023-02-15T13:59:16;56.58;;;26.80;;
54945;SDS011;40846;44.788;20.486;2023-02-15T14:01:58;45.67;;;20.35;;
54945;SDS011;40846;44.788;20.486;2023-02-15T14:07:04;48.03;;;25.27;;
54945;SDS011;40846;44.788;20.486;2023-02-15T14:12:26;34.92;;;20.17;;
54945;SDS011;40846;44.788;20.486;2023-02-15T14:20:02;54.60;;;27.35;;
54945;SDS011;40846;44.788;20.486;2023-02-15T14:25:35;48.72;;;25.05;;
54945;SDS011;40846;44.788;20.486;2023-02-15T14:28:27;52.45;;;25.50;;
54945;SDS011;40846;44.788;20.486;2023-02-15T14:30:51;42.85;;;21.90;;
54945;SDS011;40846;44.788;20.486;2023-02-15T14:35:44;38.28;;;20.60;;
54945;SDS011;40846;44.788;20.486;2023-02-15T14:43:24;68.80;;;31.48;;
54945;SDS011;40846;44.788;20.486;2023-02-15T14:45:54;40.83;;;22.38;;
54945;SDS011;40846;44.788;20.486;2023-02-15T14:48:31;43.75;;;23.17;;
54945;SDS011;40846;44.788;20.486;2023-02-15T14:50:59;160.82;;;82.90;;
54945;SDS011;40846;44.788;20.486;2023-02-15T15:01:25;41.85;;;22.95;;
54945;SDS011;40846;44.788;20.486;2023-02-15T15:03:53;49.97;;;25.48;;
54945;SDS011;40846;44.788;20.486;2023-02-15T15:09:13;38.50;;;22.23;;
54945;SDS011;40846;44.788;20.486;2023-02-15T15:11:51;69.80;;;30.98;;
54945;SDS011;40846;44.788;20.486;2023-02-15T15:20:08;65.70;;;30.88;;
54945;SDS011;40846;44.788;20.486;2023-02-15T15:22:24;46.00;;;22.25;;
54945;SDS011;40846;44.788;20.486;2023-02-15T15:24:51;53.83;;;27.30;;
54945;SDS011;40846;44.788;20.486;2023-02-15T15:30:48;54.80;;;24.15;;
54945;SDS011;40846;44.788;20.486;2023-02-15T15:32:59;83.28;;;36.28;;
54945;SDS011;40846;44.788;20.486;2023-02-15T15:35:27;82.50;;;35.17;;
54945;SDS011;40846;44.788;20.486;2023-02-15T15:48:51;188.88;;;66.50;;
54945;SDS011;40846;44.788;20.486;2023-02-15T15:51:23;403.80;;;115.03;;
54945;SDS011;40846;44.788;20.486;2023-02-15T15:53:52;126.70;;;45.90;;
54945;SDS011;40846;44.788;20.486;2023-02-15T15:56:29;139.32;;;52.70;;
54945;SDS011;40846;44.788;20.486;2023-02-15T15:59:02;146.45;;;51.40;;
54945;SDS011;40846;44.788;20.486;2023-02-15T16:01:30;119.38;;;47.53;;
54945;SDS011;40846;44.788;20.486;2023-02-15T16:03:57;397.55;;;141.70;;
54945;SDS011;40846;44.788;20.486;2023-02-15T16:06:27;381.75;;;147.48;;
54945;SDS011;40846;44.788;20.486;2023-02-15T16:08:54;416.98;;;167.65;;
54945;SDS011;40846;44.788;20.486;2023-02-15T16:11:27;269.40;;;111.40;;
54945;SDS011;40846;44.788;20.486;2023-02-15T16:13:55;170.68;;;75.60;;
54945;SDS011;40846;44.788;20.486;2023-02-15T16:16:25;189.55;;;86.70;;
54945;SDS011;40846;44.788;20.486;2023-02-15T16:18:53;155.30;;;77.45;;
54945;SDS011;40846;44.788;20.486;2023-02-15T16:21:21;83.85;;;44.72;;
54945;SDS011;40846;44.788;20.486;2023-02-15T16:26:35;72.28;;;37.80;;
54945;SDS011;40846;44.788;20.486;2023-02-15T16:31:59;76.68;;;36.78;;
54945;SDS011;40846;44.788;20.486;2023-02-15T16:34:25;79.93;;;37.30;;
54945;SDS011;40846;44.788;20.486;2023-02-15T16:37:11;76.40;;;36.60;;
54945;SDS011;40846;44.788;20.486;2023-02-15T16:39:40;79.30;;;37.10;;
54945;SDS011;40846;44.788;20.486;2023-02-15T16:42:10;66.35;;;35.05;;
54945;SDS011;40846;44.788;20.486;2023-02-15T16:44:36;77.03;;;35.00;;
54945;SDS011;40846;44.788;20.486;2023-02-15T16:47:03;78.38;;;38.60;;
54945;SDS011;40846;44.788;20.486;2023-02-15T16:49:29;87.28;;;41.10;;
54945;SDS011;40846;44.788;20.486;2023-02-15T16:52:00;92.50;;;43.20;;
54945;SDS011;40846;44.788;20.486;2023-02-15T16:54:56;101.07;;;46.33;;
54945;SDS011;40846;44.788;20.486;2023-02-15T16:57:23;107.22;;;47.75;;
54945;SDS011;40846;44.788;20.486;2023-02-15T16:59:50;98.10;;;46.22;;
54945;SDS011;40846;44.788;20.486;2023-02-15T17:02:28;100.78;;;47.67;;
54945;SDS011;40846;44.788;20.486;2023-02-15T17:05:16;95.18;;;43.05;;
54945;SDS011;40846;44.788;20.486;2023-02-15T17:07:48;98.85;;;42.67;;
54945;SDS011;40846;44.788;20.486;2023-02-15T17:10:34;115.63;;;46.95;;
54945;SDS011;40846;44.788;20.486;2023-02-15T17:13:09;100.65;;;44.25;;
54945;SDS011;40846;44.788;20.486;2023-02-15T17:15:36;119.25;;;48.42;;
54945;SDS011;40846;44.788;20.486;2023-02-15T17:18:09;117.38;;;48.80;;
54945;SDS011;40846;44.788;20.486;2023-02-15T17:20:37;124.35;;;51.35;;
54945;SDS011;40846;44.788;20.486;2023-02-15T17:23:06;121.97;;;51.38;;
54945;SDS011;40846;44.788;20.486;2023-02-15T17:25:46;110.32;;;48.80;;
54945;SDS011;40846;44.788;20.486;2023-02-15T17:28:16;106.07;;;49.22;;
54945;SDS011;40846;44.788;20.486;2023-02-15T17:30:44;103.53;;;42.72;;
54945;SDS011;40846;44.788;20.486;2023-02-15T17:36:01;88.15;;;41.72;;